sensor_id;sensor_type;location;lat;lon;timestamp;P1;durP1;ratioP1;P2;durP2;ratioP2
75129;SDS011;63703;44.716;37.846;2023-03-14T00:02:09;6.88;;;3.78;;
75129;SDS011;63703;44.716;37.846;2023-03-14T00:04:35;5.07;;;2.67;;
75129;SDS011;63703;44.716;37.846;2023-03-14T00:07:01;6.65;;;2.97;;
75129;SDS011;63703;44.716;37.846;2023-03-14T00:09:28;5.40;;;3.78;;
75129;SDS011;63703;44.716;37.846;2023-03-14T00:11:55;7.80;;;3.88;;
75129;SDS011;63703;44.716;37.846;2023-03-14T00:14:21;6.68;;;4.38;;
75129;SDS011;63703;44.716;37.846;2023-03-14T00:16:47;7.13;;;4.95;;
75129;SDS011;63703;44.716;37.846;2023-03-14T00:19:13;5.10;;;3.22;;
75129;SDS011;63703;44.716;37.846;2023-03-14T00:21:39;5.85;;;3.05;;
75129;SDS011;63703;44.716;37.846;2023-03-14T00:24:06;6.50;;;4.28;;
75129;SDS011;63703;44.716;37.846;2023-03-14T00:26:32;5.47;;;3.10;;
75129;SDS011;63703;44.716;37.846;2023-03-14T00:28:58;6.15;;;4.22;;
75129;SDS011;63703;44.716;37.846;2023-03-14T00:31:24;6.35;;;4.22;;
75129;SDS011;63703;44.716;37.846;2023-03-14T00:33:51;5.72;;;3.50;;
75129;SDS011;63703;44.716;37.846;2023-03-14T00:36:19;7.72;;;5.60;;
75129;SDS011;63703;44.716;37.846;2023-03-14T00:38:49;7.60;;;4.65;;
75129;SDS011;63703;44.716;37.846;2023-03-14T00:41:17;10.90;;;5.65;;
75129;SDS011;63703;44.716;37.846;2023-03-14T00:43:46;7.97;;;4.97;;
75129;SDS011;63703;44.716;37.846;2023-03-14T00:46:12;9.40;;;3.95;;
75129;SDS011;63703;44.716;37.846;2023-03-14T00:48:38;6.68;;;4.03;;
75129;SDS011;63703;44.716;37.846;2023-03-14T00:51:04;9.88;;;5.47;;
75129;SDS011;63703;44.716;37.846;2023-03-14T00:53:31;11.45;;;7.82;;
75129;SDS011;63703;44.716;37.846;2023-03-14T00:56:05;10.02;;;6.00;;
75129;SDS011;63703;44.716;37.846;2023-03-14T00:58:32;9.93;;;5.68;;
75129;SDS011;63703;44.716;37.846;2023-03-14T01:00:58;11.82;;;6.82;;
75129;SDS011;63703;44.716;37.846;2023-03-14T01:03:24;10.25;;;5.55;;
75129;SDS011;63703;44.716;37.846;2023-03-14T01:05:50;9.68;;;7.13;;
75129;SDS011;63703;44.716;37.846;2023-03-14T01:08:16;10.48;;;5.38;;
75129;SDS011;63703;44.716;37.846;2023-03-14T01:10:42;13.18;;;7.65;;
75129;SDS011;63703;44.716;37.846;2023-03-14T01:13:09;9.65;;;6.25;;
75129;SDS011;63703;44.716;37.846;2023-03-14T01:15:35;10.68;;;6.18;;
75129;SDS011;63703;44.716;37.846;2023-03-14T01:18:02;9.63;;;5.40;;
75129;SDS011;63703;44.716;37.846;2023-03-14T01:20:28;10.82;;;6.50;;
75129;SDS011;63703;44.716;37.846;2023-03-14T01:22:54;9.70;;;4.88;;
75129;SDS011;63703;44.716;37.846;2023-03-14T01:25:21;11.93;;;6.95;;
75129;SDS011;63703;44.716;37.846;2023-03-14T01:27:47;10.50;;;5.95;;
75129;SDS011;63703;44.716;37.846;2023-03-14T01:30:13;12.93;;;6.30;;
75129;SDS011;63703;44.716;37.846;2023-03-14T01:32:39;10.93;;;6.50;;
75129;SDS011;63703;44.716;37.846;2023-03-14T01:35:06;10.55;;;6.82;;
75129;SDS011;63703;44.716;37.846;2023-03-14T01:37:33;12.45;;;7.35;;
75129;SDS011;63703;44.716;37.846;2023-03-14T01:39:59;12.25;;;6.20;;
75129;SDS011;63703;44.716;37.846;2023-03-14T01:42:25;10.85;;;6.40;;
75129;SDS011;63703;44.716;37.846;2023-03-14T01:44:58;13.45;;;7.30;;
75129;SDS011;63703;44.716;37.846;2023-03-14T01:47:27;10.55;;;4.80;;
75129;SDS011;63703;44.716;37.846;2023-03-14T01:50:08;11.15;;;6.32;;
75129;SDS011;63703;44.716;37.846;2023-03-14T01:55:16;9.43;;;5.32;;
75129;SDS011;63703;44.716;37.846;2023-03-14T01:57:54;8.73;;;5.10;;
75129;SDS011;63703;44.716;37.846;2023-03-14T02:00:24;9.48;;;6.28;;
75129;SDS011;63703;44.716;37.846;2023-03-14T02:02:51;9.13;;;5.18;;
75129;SDS011;63703;44.716;37.846;2023-03-14T02:05:23;10.52;;;5.65;;
75129;SDS011;63703;44.716;37.846;2023-03-14T02:08:10;9.18;;;6.15;;
75129;SDS011;63703;44.716;37.846;2023-03-14T02:10:47;10.02;;;5.63;;
75129;SDS011;63703;44.716;37.846;2023-03-14T02:13:18;10.27;;;6.20;;
75129;SDS011;63703;44.716;37.846;2023-03-14T02:16:12;12.73;;;5.28;;
75129;SDS011;63703;44.716;37.846;2023-03-14T02:18:59;10.18;;;5.88;;
75129;SDS011;63703;44.716;37.846;2023-03-14T02:22:05;9.45;;;5.93;;
75129;SDS011;63703;44.716;37.846;2023-03-14T02:24:40;7.88;;;4.07;;
75129;SDS011;63703;44.716;37.846;2023-03-14T02:27:12;9.80;;;5.05;;
75129;SDS011;63703;44.716;37.846;2023-03-14T02:32:15;9.68;;;4.70;;
75129;SDS011;63703;44.716;37.846;2023-03-14T02:34:43;9.32;;;5.72;;
75129;SDS011;63703;44.716;37.846;2023-03-14T02:37:13;8.43;;;4.70;;
75129;SDS011;63703;44.716;37.846;2023-03-14T02:39:43;9.48;;;5.95;;
75129;SDS011;63703;44.716;37.846;2023-03-14T02:42:12;6.90;;;4.50;;
75129;SDS011;63703;44.716;37.846;2023-03-14T02:44:49;14.00;;;4.78;;
75129;SDS011;63703;44.716;37.846;2023-03-14T02:47:20;7.78;;;4.60;;
75129;SDS011;63703;44.716;37.846;2023-03-14T02:49:50;8.85;;;4.00;;
75129;SDS011;63703;44.716;37.846;2023-03-14T02:52:18;7.78;;;4.13;;
75129;SDS011;63703;44.716;37.846;2023-03-14T02:54:44;7.45;;;4.32;;
75129;SDS011;63703;44.716;37.846;2023-03-14T02:57:10;8.88;;;4.63;;
75129;SDS011;63703;44.716;37.846;2023-03-14T02:59:36;9.00;;;4.85;;
75129;SDS011;63703;44.716;37.846;2023-03-14T03:02:08;8.60;;;5.20;;
75129;SDS011;63703;44.716;37.846;2023-03-14T03:04:34;7.93;;;4.70;;
75129;SDS011;63703;44.716;37.846;2023-03-14T03:07:00;7.35;;;4.25;;
75129;SDS011;63703;44.716;37.846;2023-03-14T03:09:26;8.95;;;5.72;;
75129;SDS011;63703;44.716;37.846;2023-03-14T03:11:52;8.13;;;4.18;;
75129;SDS011;63703;44.716;37.846;2023-03-14T03:14:22;6.95;;;3.88;;
75129;SDS011;63703;44.716;37.846;2023-03-14T03:16:48;7.18;;;4.18;;
75129;SDS011;63703;44.716;37.846;2023-03-14T03:19:14;7.22;;;3.55;;
75129;SDS011;63703;44.716;37.846;2023-03-14T03:21:41;7.20;;;3.97;;
75129;SDS011;63703;44.716;37.846;2023-03-14T03:24:07;7.47;;;4.30;;
75129;SDS011;63703;44.716;37.846;2023-03-14T03:26:36;7.05;;;3.75;;
75129;SDS011;63703;44.716;37.846;2023-03-14T03:29:04;7.00;;;3.72;;
75129;SDS011;63703;44.716;37.846;2023-03-14T03:31:31;7.72;;;3.97;;
75129;SDS011;63703;44.716;37.846;2023-03-14T03:33:57;6.93;;;3.97;;
75129;SDS011;63703;44.716;37.846;2023-03-14T03:36:24;7.75;;;4.28;;
75129;SDS011;63703;44.716;37.846;2023-03-14T03:38:51;8.00;;;4.68;;
75129;SDS011;63703;44.716;37.846;2023-03-14T03:41:17;7.22;;;3.17;;
75129;SDS011;63703;44.716;37.846;2023-03-14T03:43:45;8.15;;;3.92;;
75129;SDS011;63703;44.716;37.846;2023-03-14T03:46:14;7.68;;;3.78;;
75129;SDS011;63703;44.716;37.846;2023-03-14T03:48:40;7.03;;;3.83;;
75129;SDS011;63703;44.716;37.846;2023-03-14T03:51:07;7.43;;;4.60;;
75129;SDS011;63703;44.716;37.846;2023-03-14T03:53:38;8.40;;;4.10;;
75129;SDS011;63703;44.716;37.846;2023-03-14T03:56:08;8.50;;;4.15;;
75129;SDS011;63703;44.716;37.846;2023-03-14T03:58:34;10.77;;;5.88;;
75129;SDS011;63703;44.716;37.846;2023-03-14T04:01:01;7.97;;;4.53;;
75129;SDS011;63703;44.716;37.846;2023-03-14T04:03:28;8.95;;;5.45;;
75129;SDS011;63703;44.716;37.846;2023-03-14T04:05:59;7.70;;;4.75;;
75129;SDS011;63703;44.716;37.846;2023-03-14T04:08:31;7.10;;;3.72;;
75129;SDS011;63703;44.716;37.846;2023-03-14T04:10:58;7.40;;;4.43;;
75129;SDS011;63703;44.716;37.846;2023-03-14T04:13:44;7.80;;;4.40;;
75129;SDS011;63703;44.716;37.846;2023-03-14T04:16:17;9.95;;;5.82;;
75129;SDS011;63703;44.716;37.846;2023-03-14T04:18:46;9.10;;;5.03;;
75129;SDS011;63703;44.716;37.846;2023-03-14T04:21:12;8.65;;;4.70;;
75129;SDS011;63703;44.716;37.846;2023-03-14T04:23:45;10.57;;;5.82;;
75129;SDS011;63703;44.716;37.846;2023-03-14T04:26:12;12.32;;;6.25;;
75129;SDS011;63703;44.716;37.846;2023-03-14T04:28:38;8.45;;;4.40;;
75129;SDS011;63703;44.716;37.846;2023-03-14T04:33:35;7.45;;;4.63;;
75129;SDS011;63703;44.716;37.846;2023-03-14T04:36:03;7.45;;;3.25;;
75129;SDS011;63703;44.716;37.846;2023-03-14T04:38:31;7.38;;;3.55;;
75129;SDS011;63703;44.716;37.846;2023-03-14T04:40:58;9.55;;;4.43;;
75129;SDS011;63703;44.716;37.846;2023-03-14T04:43:29;12.07;;;5.55;;
75129;SDS011;63703;44.716;37.846;2023-03-14T04:46:01;7.18;;;4.20;;
75129;SDS011;63703;44.716;37.846;2023-03-14T04:48:27;9.05;;;5.72;;
75129;SDS011;63703;44.716;37.846;2023-03-14T04:50:54;9.30;;;4.68;;
75129;SDS011;63703;44.716;37.846;2023-03-14T04:53:20;9.32;;;5.55;;
75129;SDS011;63703;44.716;37.846;2023-03-14T04:55:53;7.80;;;4.28;;
75129;SDS011;63703;44.716;37.846;2023-03-14T04:58:23;7.25;;;4.50;;
75129;SDS011;63703;44.716;37.846;2023-03-14T05:00:50;9.32;;;4.93;;
75129;SDS011;63703;44.716;37.846;2023-03-14T05:03:40;7.63;;;3.95;;
75129;SDS011;63703;44.716;37.846;2023-03-14T05:06:17;8.65;;;5.57;;
75129;SDS011;63703;44.716;37.846;2023-03-14T05:08:49;7.32;;;3.95;;
75129;SDS011;63703;44.716;37.846;2023-03-14T05:11:35;8.60;;;5.30;;
75129;SDS011;63703;44.716;37.846;2023-03-14T05:14:13;7.13;;;4.18;;
75129;SDS011;63703;44.716;37.846;2023-03-14T05:16:54;9.00;;;4.82;;
75129;SDS011;63703;44.716;37.846;2023-03-14T05:19:35;7.18;;;4.50;;
75129;SDS011;63703;44.716;37.846;2023-03-14T05:22:19;7.05;;;3.90;;
75129;SDS011;63703;44.716;37.846;2023-03-14T05:24:59;6.93;;;3.60;;
75129;SDS011;63703;44.716;37.846;2023-03-14T05:27:34;7.63;;;4.57;;
75129;SDS011;63703;44.716;37.846;2023-03-14T05:30:23;8.10;;;3.60;;
75129;SDS011;63703;44.716;37.846;2023-03-14T05:33:18;6.07;;;3.55;;
75129;SDS011;63703;44.716;37.846;2023-03-14T05:36:10;8.40;;;4.55;;
75129;SDS011;63703;44.716;37.846;2023-03-14T05:38:50;8.95;;;4.05;;
75129;SDS011;63703;44.716;37.846;2023-03-14T05:41:30;6.97;;;4.28;;
75129;SDS011;63703;44.716;37.846;2023-03-14T05:44:14;7.43;;;3.83;;
75129;SDS011;63703;44.716;37.846;2023-03-14T05:46:59;8.27;;;4.28;;
75129;SDS011;63703;44.716;37.846;2023-03-14T05:49:43;6.57;;;3.05;;
75129;SDS011;63703;44.716;37.846;2023-03-14T05:52:28;6.20;;;4.15;;
75129;SDS011;63703;44.716;37.846;2023-03-14T05:55:29;8.10;;;2.85;;
75129;SDS011;63703;44.716;37.846;2023-03-14T05:58:09;7.40;;;3.92;;
75129;SDS011;63703;44.716;37.846;2023-03-14T06:00:55;6.15;;;3.45;;
75129;SDS011;63703;44.716;37.846;2023-03-14T06:03:41;7.15;;;4.72;;
75129;SDS011;63703;44.716;37.846;2023-03-14T06:06:08;7.40;;;4.03;;
75129;SDS011;63703;44.716;37.846;2023-03-14T06:08:34;6.65;;;3.03;;
75129;SDS011;63703;44.716;37.846;2023-03-14T06:11:03;6.18;;;3.95;;
75129;SDS011;63703;44.716;37.846;2023-03-14T06:13:30;7.80;;;4.07;;
75129;SDS011;63703;44.716;37.846;2023-03-14T06:15:56;7.05;;;4.38;;
75129;SDS011;63703;44.716;37.846;2023-03-14T06:18:22;6.30;;;3.60;;
75129;SDS011;63703;44.716;37.846;2023-03-14T06:20:48;5.90;;;3.17;;
75129;SDS011;63703;44.716;37.846;2023-03-14T06:23:21;8.13;;;2.60;;
75129;SDS011;63703;44.716;37.846;2023-03-14T06:25:48;7.78;;;4.40;;
75129;SDS011;63703;44.716;37.846;2023-03-14T06:28:14;7.50;;;3.67;;
75129;SDS011;63703;44.716;37.846;2023-03-14T06:30:41;7.13;;;3.55;;
75129;SDS011;63703;44.716;37.846;2023-03-14T06:33:11;7.72;;;3.97;;
75129;SDS011;63703;44.716;37.846;2023-03-14T06:35:39;8.13;;;4.55;;
75129;SDS011;63703;44.716;37.846;2023-03-14T06:38:06;8.77;;;4.13;;
75129;SDS011;63703;44.716;37.846;2023-03-14T06:40:32;7.68;;;3.80;;
75129;SDS011;63703;44.716;37.846;2023-03-14T06:43:04;7.05;;;3.35;;
75129;SDS011;63703;44.716;37.846;2023-03-14T06:45:32;6.40;;;4.25;;
75129;SDS011;63703;44.716;37.846;2023-03-14T06:48:00;5.70;;;2.92;;
75129;SDS011;63703;44.716;37.846;2023-03-14T06:50:36;6.65;;;4.28;;
75129;SDS011;63703;44.716;37.846;2023-03-14T06:53:03;7.15;;;3.83;;
75129;SDS011;63703;44.716;37.846;2023-03-14T06:55:29;8.73;;;4.40;;
75129;SDS011;63703;44.716;37.846;2023-03-14T06:57:55;7.45;;;5.05;;
75129;SDS011;63703;44.716;37.846;2023-03-14T07:00:22;5.70;;;2.97;;
75129;SDS011;63703;44.716;37.846;2023-03-14T07:02:53;8.63;;;3.75;;
75129;SDS011;63703;44.716;37.846;2023-03-14T07:05:29;7.05;;;3.65;;
75129;SDS011;63703;44.716;37.846;2023-03-14T07:07:55;8.00;;;3.35;;
75129;SDS011;63703;44.716;37.846;2023-03-14T07:10:22;7.25;;;3.83;;
75129;SDS011;63703;44.716;37.846;2023-03-14T07:12:49;7.05;;;3.35;;
75129;SDS011;63703;44.716;37.846;2023-03-14T07:15:15;6.93;;;4.00;;
75129;SDS011;63703;44.716;37.846;2023-03-14T07:17:41;7.05;;;3.60;;
75129;SDS011;63703;44.716;37.846;2023-03-14T07:20:08;7.07;;;4.35;;
75129;SDS011;63703;44.716;37.846;2023-03-14T07:22:34;8.43;;;4.35;;
75129;SDS011;63703;44.716;37.846;2023-03-14T07:25:00;5.88;;;2.97;;
75129;SDS011;63703;44.716;37.846;2023-03-14T07:27:27;6.97;;;3.63;;
75129;SDS011;63703;44.716;37.846;2023-03-14T07:29:53;6.35;;;3.40;;
75129;SDS011;63703;44.716;37.846;2023-03-14T07:32:19;10.52;;;4.60;;
75129;SDS011;63703;44.716;37.846;2023-03-14T07:34:45;6.80;;;3.38;;
75129;SDS011;63703;44.716;37.846;2023-03-14T07:37:11;6.32;;;3.33;;
75129;SDS011;63703;44.716;37.846;2023-03-14T07:39:36;8.68;;;3.88;;
75129;SDS011;63703;44.716;37.846;2023-03-14T07:42:07;5.95;;;3.75;;
75129;SDS011;63703;44.716;37.846;2023-03-14T07:44:42;6.20;;;2.90;;
75129;SDS011;63703;44.716;37.846;2023-03-14T07:47:08;7.93;;;3.28;;
75129;SDS011;63703;44.716;37.846;2023-03-14T07:49:34;5.93;;;3.40;;
75129;SDS011;63703;44.716;37.846;2023-03-14T07:52:00;5.03;;;3.58;;
75129;SDS011;63703;44.716;37.846;2023-03-14T07:54:26;6.68;;;3.42;;
75129;SDS011;63703;44.716;37.846;2023-03-14T07:56:52;6.18;;;3.42;;
75129;SDS011;63703;44.716;37.846;2023-03-14T07:59:18;6.18;;;2.88;;
75129;SDS011;63703;44.716;37.846;2023-03-14T08:01:44;5.60;;;3.72;;
75129;SDS011;63703;44.716;37.846;2023-03-14T08:04:10;5.28;;;2.88;;
75129;SDS011;63703;44.716;37.846;2023-03-14T08:06:36;5.57;;;3.97;;
75129;SDS011;63703;44.716;37.846;2023-03-14T08:09:03;5.63;;;3.58;;
75129;SDS011;63703;44.716;37.846;2023-03-14T08:11:30;5.68;;;3.28;;
75129;SDS011;63703;44.716;37.846;2023-03-14T08:13:56;9.73;;;5.47;;
75129;SDS011;63703;44.716;37.846;2023-03-14T08:16:21;4.78;;;2.53;;
75129;SDS011;63703;44.716;37.846;2023-03-14T08:18:48;5.35;;;2.50;;
75129;SDS011;63703;44.716;37.846;2023-03-14T08:21:14;4.93;;;1.98;;
75129;SDS011;63703;44.716;37.846;2023-03-14T08:23:40;4.70;;;3.08;;
75129;SDS011;63703;44.716;37.846;2023-03-14T08:26:06;4.78;;;2.75;;
75129;SDS011;63703;44.716;37.846;2023-03-14T08:28:32;4.40;;;1.75;;
75129;SDS011;63703;44.716;37.846;2023-03-14T08:30:58;4.70;;;3.60;;
75129;SDS011;63703;44.716;37.846;2023-03-14T08:33:26;4.40;;;2.92;;
75129;SDS011;63703;44.716;37.846;2023-03-14T08:35:54;4.35;;;2.88;;
75129;SDS011;63703;44.716;37.846;2023-03-14T08:38:21;4.07;;;2.95;;
75129;SDS011;63703;44.716;37.846;2023-03-14T08:40:47;3.10;;;1.23;;
75129;SDS011;63703;44.716;37.846;2023-03-14T08:43:14;4.05;;;2.22;;
75129;SDS011;63703;44.716;37.846;2023-03-14T08:45:40;4.25;;;2.45;;
75129;SDS011;63703;44.716;37.846;2023-03-14T08:48:06;4.00;;;2.22;;
75129;SDS011;63703;44.716;37.846;2023-03-14T08:50:32;2.97;;;2.13;;
75129;SDS011;63703;44.716;37.846;2023-03-14T08:52:58;3.20;;;1.73;;
75129;SDS011;63703;44.716;37.846;2023-03-14T08:55:25;3.60;;;1.88;;
75129;SDS011;63703;44.716;37.846;2023-03-14T08:57:55;3.55;;;1.92;;
75129;SDS011;63703;44.716;37.846;2023-03-14T09:00:22;4.85;;;2.85;;
75129;SDS011;63703;44.716;37.846;2023-03-14T09:02:48;3.78;;;2.33;;
75129;SDS011;63703;44.716;37.846;2023-03-14T09:05:14;4.10;;;2.33;;
75129;SDS011;63703;44.716;37.846;2023-03-14T09:07:40;4.55;;;2.72;;
75129;SDS011;63703;44.716;37.846;2023-03-14T09:10:06;3.00;;;1.42;;
75129;SDS011;63703;44.716;37.846;2023-03-14T09:12:33;4.28;;;1.67;;
75129;SDS011;63703;44.716;37.846;2023-03-14T09:14:59;6.70;;;2.38;;
75129;SDS011;63703;44.716;37.846;2023-03-14T09:17:25;4.03;;;1.90;;
75129;SDS011;63703;44.716;37.846;2023-03-14T09:19:51;4.43;;;2.42;;
75129;SDS011;63703;44.716;37.846;2023-03-14T09:22:18;24.08;;;3.00;;
75129;SDS011;63703;44.716;37.846;2023-03-14T09:24:44;3.38;;;2.05;;
75129;SDS011;63703;44.716;37.846;2023-03-14T09:27:10;3.78;;;1.67;;
75129;SDS011;63703;44.716;37.846;2023-03-14T09:29:36;4.63;;;2.97;;
75129;SDS011;63703;44.716;37.846;2023-03-14T09:32:01;5.63;;;2.70;;
75129;SDS011;63703;44.716;37.846;2023-03-14T09:34:28;4.70;;;2.28;;
75129;SDS011;63703;44.716;37.846;2023-03-14T09:36:55;4.50;;;2.60;;
75129;SDS011;63703;44.716;37.846;2023-03-14T09:39:21;5.68;;;3.08;;
75129;SDS011;63703;44.716;37.846;2023-03-14T09:41:47;5.40;;;2.88;;
75129;SDS011;63703;44.716;37.846;2023-03-14T09:44:29;5.47;;;3.47;;
75129;SDS011;63703;44.716;37.846;2023-03-14T09:49:28;4.32;;;2.50;;
75129;SDS011;63703;44.716;37.846;2023-03-14T09:52:00;3.83;;;1.98;;
75129;SDS011;63703;44.716;37.846;2023-03-14T09:56:58;4.82;;;2.50;;
75129;SDS011;63703;44.716;37.846;2023-03-14T09:59:25;5.68;;;2.15;;
75129;SDS011;63703;44.716;37.846;2023-03-14T10:01:52;4.00;;;2.00;;
75129;SDS011;63703;44.716;37.846;2023-03-14T10:04:21;3.60;;;1.30;;
75129;SDS011;63703;44.716;37.846;2023-03-14T10:06:50;4.35;;;2.55;;
75129;SDS011;63703;44.716;37.846;2023-03-14T10:09:21;4.82;;;1.52;;
75129;SDS011;63703;44.716;37.846;2023-03-14T10:11:56;4.05;;;2.10;;
75129;SDS011;63703;44.716;37.846;2023-03-14T10:14:30;8.13;;;3.47;;
75129;SDS011;63703;44.716;37.846;2023-03-14T10:17:07;4.30;;;2.10;;
75129;SDS011;63703;44.716;37.846;2023-03-14T10:19:35;4.05;;;2.55;;
75129;SDS011;63703;44.716;37.846;2023-03-14T10:22:03;3.85;;;2.45;;
75129;SDS011;63703;44.716;37.846;2023-03-14T10:24:34;2.42;;;1.27;;
75129;SDS011;63703;44.716;37.846;2023-03-14T10:27:04;3.95;;;2.03;;
75129;SDS011;63703;44.716;37.846;2023-03-14T10:30:03;4.95;;;2.13;;
75129;SDS011;63703;44.716;37.846;2023-03-14T10:32:34;3.08;;;1.80;;
75129;SDS011;63703;44.716;37.846;2023-03-14T10:35:18;4.55;;;1.83;;
75129;SDS011;63703;44.716;37.846;2023-03-14T10:40:24;5.43;;;1.67;;
75129;SDS011;63703;44.716;37.846;2023-03-14T10:42:55;3.83;;;1.40;;
75129;SDS011;63703;44.716;37.846;2023-03-14T10:48:16;3.40;;;1.75;;
75129;SDS011;63703;44.716;37.846;2023-03-14T10:51:01;3.50;;;1.83;;
75129;SDS011;63703;44.716;37.846;2023-03-14T10:53:40;5.05;;;1.92;;
75129;SDS011;63703;44.716;37.846;2023-03-14T10:56:10;3.60;;;1.10;;
75129;SDS011;63703;44.716;37.846;2023-03-14T10:58:49;4.05;;;2.55;;
75129;SDS011;63703;44.716;37.846;2023-03-14T11:07:33;3.17;;;1.77;;
75129;SDS011;63703;44.716;37.846;2023-03-14T11:10:12;3.80;;;1.70;;
75129;SDS011;63703;44.716;37.846;2023-03-14T11:21:13;4.22;;;1.90;;
75129;SDS011;63703;44.716;37.846;2023-03-14T11:32:09;4.13;;;2.53;;
75129;SDS011;63703;44.716;37.846;2023-03-14T11:34:42;3.70;;;1.95;;
75129;SDS011;63703;44.716;37.846;2023-03-14T11:37:23;3.63;;;2.03;;
75129;SDS011;63703;44.716;37.846;2023-03-14T11:39:56;4.13;;;1.83;;
75129;SDS011;63703;44.716;37.846;2023-03-14T11:42:33;3.08;;;1.75;;
75129;SDS011;63703;44.716;37.846;2023-03-14T11:45:00;2.80;;;1.40;;
75129;SDS011;63703;44.716;37.846;2023-03-14T11:47:31;3.35;;;1.25;;
75129;SDS011;63703;44.716;37.846;2023-03-14T11:52:40;2.75;;;1.25;;
75129;SDS011;63703;44.716;37.846;2023-03-14T11:57:40;4.13;;;1.67;;
75129;SDS011;63703;44.716;37.846;2023-03-14T12:00:19;2.78;;;1.42;;
75129;SDS011;63703;44.716;37.846;2023-03-14T12:03:05;2.63;;;0.75;;
75129;SDS011;63703;44.716;37.846;2023-03-14T12:13:58;3.38;;;1.27;;
75129;SDS011;63703;44.716;37.846;2023-03-14T12:18:55;2.03;;;0.65;;
75129;SDS011;63703;44.716;37.846;2023-03-14T12:21:21;2.45;;;0.75;;
75129;SDS011;63703;44.716;37.846;2023-03-14T12:23:50;2.20;;;0.43;;
75129;SDS011;63703;44.716;37.846;2023-03-14T12:26:24;2.00;;;0.47;;
75129;SDS011;63703;44.716;37.846;2023-03-14T12:34:01;3.60;;;0.85;;
75129;SDS011;63703;44.716;37.846;2023-03-14T12:42:01;2.63;;;0.73;;
75129;SDS011;63703;44.716;37.846;2023-03-14T12:49:43;2.80;;;1.50;;
75129;SDS011;63703;44.716;37.846;2023-03-14T12:52:14;2.53;;;1.02;;
75129;SDS011;63703;44.716;37.846;2023-03-14T12:57:35;3.22;;;1.13;;
75129;SDS011;63703;44.716;37.846;2023-03-14T13:00:03;2.55;;;1.23;;
75129;SDS011;63703;44.716;37.846;2023-03-14T13:05:23;1.80;;;0.55;;
75129;SDS011;63703;44.716;37.846;2023-03-14T13:10:26;3.33;;;1.00;;
75129;SDS011;63703;44.716;37.846;2023-03-14T13:13:03;2.50;;;0.82;;
75129;SDS011;63703;44.716;37.846;2023-03-14T13:15:46;2.05;;;0.82;;
75129;SDS011;63703;44.716;37.846;2023-03-14T13:24:17;2.38;;;1.25;;
75129;SDS011;63703;44.716;37.846;2023-03-14T13:29:19;2.17;;;0.75;;
75129;SDS011;63703;44.716;37.846;2023-03-14T13:31:48;4.00;;;1.98;;
75129;SDS011;63703;44.716;37.846;2023-03-14T13:34:16;2.30;;;0.52;;
75129;SDS011;63703;44.716;37.846;2023-03-14T13:36:42;2.90;;;1.35;;
75129;SDS011;63703;44.716;37.846;2023-03-14T13:39:17;2.85;;;1.13;;
75129;SDS011;63703;44.716;37.846;2023-03-14T13:41:45;3.08;;;0.68;;
75129;SDS011;63703;44.716;37.846;2023-03-14T13:44:22;4.35;;;1.58;;
75129;SDS011;63703;44.716;37.846;2023-03-14T13:46:51;3.15;;;0.77;;
75129;SDS011;63703;44.716;37.846;2023-03-14T13:49:22;2.20;;;0.88;;
75129;SDS011;63703;44.716;37.846;2023-03-14T13:51:50;2.65;;;0.68;;
75129;SDS011;63703;44.716;37.846;2023-03-14T13:54:17;2.22;;;0.52;;
75129;SDS011;63703;44.716;37.846;2023-03-14T13:56:45;3.45;;;1.40;;
75129;SDS011;63703;44.716;37.846;2023-03-14T13:59:28;2.45;;;0.98;;
75129;SDS011;63703;44.716;37.846;2023-03-14T14:04:23;3.30;;;1.50;;
75129;SDS011;63703;44.716;37.846;2023-03-14T14:06:57;2.88;;;0.55;;
75129;SDS011;63703;44.716;37.846;2023-03-14T14:09:35;3.13;;;1.02;;
75129;SDS011;63703;44.716;37.846;2023-03-14T14:17:35;3.13;;;0.95;;
75129;SDS011;63703;44.716;37.846;2023-03-14T14:20:05;2.05;;;0.60;;
75129;SDS011;63703;44.716;37.846;2023-03-14T14:22:37;10.52;;;1.55;;
75129;SDS011;63703;44.716;37.846;2023-03-14T14:25:03;2.63;;;0.70;;
75129;SDS011;63703;44.716;37.846;2023-03-14T14:27:36;2.40;;;0.75;;
75129;SDS011;63703;44.716;37.846;2023-03-14T14:30:24;2.40;;;0.80;;
75129;SDS011;63703;44.716;37.846;2023-03-14T14:33:12;2.60;;;1.52;;
75129;SDS011;63703;44.716;37.846;2023-03-14T14:35:49;2.53;;;0.82;;
75129;SDS011;63703;44.716;37.846;2023-03-14T14:38:18;2.42;;;0.60;;
75129;SDS011;63703;44.716;37.846;2023-03-14T14:40:46;2.47;;;0.85;;
75129;SDS011;63703;44.716;37.846;2023-03-14T14:43:16;3.55;;;1.33;;
75129;SDS011;63703;44.716;37.846;2023-03-14T14:45:44;2.78;;;1.30;;
75129;SDS011;63703;44.716;37.846;2023-03-14T14:48:13;3.72;;;0.85;;
75129;SDS011;63703;44.716;37.846;2023-03-14T14:50:50;2.53;;;0.60;;
75129;SDS011;63703;44.716;37.846;2023-03-14T14:55:52;2.88;;;0.90;;
75129;SDS011;63703;44.716;37.846;2023-03-14T14:58:43;2.33;;;0.93;;
75129;SDS011;63703;44.716;37.846;2023-03-14T15:01:12;2.70;;;1.30;;
75129;SDS011;63703;44.716;37.846;2023-03-14T15:03:41;3.42;;;1.15;;
75129;SDS011;63703;44.716;37.846;2023-03-14T15:06:08;2.97;;;1.23;;
75129;SDS011;63703;44.716;37.846;2023-03-14T15:08:37;2.75;;;0.80;;
75129;SDS011;63703;44.716;37.846;2023-03-14T15:11:03;2.15;;;0.50;;
75129;SDS011;63703;44.716;37.846;2023-03-14T15:13:30;4.05;;;1.42;;
75129;SDS011;63703;44.716;37.846;2023-03-14T15:15:56;2.95;;;1.02;;
75129;SDS011;63703;44.716;37.846;2023-03-14T15:18:23;4.07;;;1.02;;
75129;SDS011;63703;44.716;37.846;2023-03-14T15:20:50;2.53;;;0.70;;
75129;SDS011;63703;44.716;37.846;2023-03-14T15:23:17;2.80;;;1.08;;
75129;SDS011;63703;44.716;37.846;2023-03-14T15:25:45;3.10;;;1.30;;
75129;SDS011;63703;44.716;37.846;2023-03-14T15:28:13;2.85;;;1.15;;
75129;SDS011;63703;44.716;37.846;2023-03-14T15:30:40;3.47;;;2.30;;
75129;SDS011;63703;44.716;37.846;2023-03-14T15:33:06;3.13;;;1.42;;
75129;SDS011;63703;44.716;37.846;2023-03-14T15:35:36;3.20;;;1.38;;
75129;SDS011;63703;44.716;37.846;2023-03-14T15:38:03;4.65;;;1.77;;
75129;SDS011;63703;44.716;37.846;2023-03-14T15:40:28;4.13;;;1.17;;
75129;SDS011;63703;44.716;37.846;2023-03-14T15:42:55;4.28;;;1.45;;
75129;SDS011;63703;44.716;37.846;2023-03-14T15:45:21;3.53;;;1.92;;
75129;SDS011;63703;44.716;37.846;2023-03-14T15:47:47;6.55;;;1.08;;
75129;SDS011;63703;44.716;37.846;2023-03-14T15:50:13;3.40;;;1.40;;
75129;SDS011;63703;44.716;37.846;2023-03-14T15:52:39;3.58;;;1.85;;
75129;SDS011;63703;44.716;37.846;2023-03-14T15:55:05;4.45;;;2.22;;
75129;SDS011;63703;44.716;37.846;2023-03-14T15:57:31;3.67;;;1.35;;
75129;SDS011;63703;44.716;37.846;2023-03-14T15:59:57;3.00;;;1.45;;
75129;SDS011;63703;44.716;37.846;2023-03-14T16:02:23;3.13;;;1.42;;
75129;SDS011;63703;44.716;37.846;2023-03-14T16:04:49;3.85;;;1.80;;
75129;SDS011;63703;44.716;37.846;2023-03-14T16:07:15;3.38;;;1.13;;
75129;SDS011;63703;44.716;37.846;2023-03-14T16:09:41;3.38;;;1.25;;
75129;SDS011;63703;44.716;37.846;2023-03-14T16:12:07;5.35;;;2.78;;
75129;SDS011;63703;44.716;37.846;2023-03-14T16:14:34;3.25;;;0.93;;
75129;SDS011;63703;44.716;37.846;2023-03-14T16:17:00;3.75;;;2.03;;
75129;SDS011;63703;44.716;37.846;2023-03-14T16:19:26;2.28;;;1.05;;
75129;SDS011;63703;44.716;37.846;2023-03-14T16:21:52;3.95;;;1.38;;
75129;SDS011;63703;44.716;37.846;2023-03-14T16:24:18;2.92;;;1.13;;
75129;SDS011;63703;44.716;37.846;2023-03-14T16:26:44;3.15;;;0.98;;
75129;SDS011;63703;44.716;37.846;2023-03-14T16:29:11;8.27;;;3.28;;
75129;SDS011;63703;44.716;37.846;2023-03-14T16:31:36;5.65;;;2.92;;